Time;durP1;ratioP1;P1;durP2;ratioP2;P2;SDS_P1;SDS_P2;PMS_P1;PMS_P2;Temp;Humidity;BMP_temperature;BMP_pressure;BME280_temperature;BME280_humidity;BME280_pressure;Samples;Min_cycle;Max_cycle;Signal;HPM_P1;HPM_P2
2022/03/22 00:01:27;;;;;;;52.97;45.45;;;;;;;;;;5027543;28;20045;-62
2022/03/22 00:03:53;;;;;;;56.80;47.90;;;;;;;;;;5027864;28;20050;-63
2022/03/22 00:06:19;;;;;;;61.28;49.80;;;;;;;;;;5028074;28;20029;-62
2022/03/22 00:08:46;;;;;;;55.38;45.92;;;;;;;;;;5026382;28;20116;-62
2022/03/22 00:11:12;;;;;;;53.92;44.90;;;;;;;;;;5025988;28;20033;-63
2022/03/22 00:13:39;;;;;;;51.15;42.95;;;;;;;;;;5027484;28;20045;-63
2022/03/22 00:16:07;;;;;;;56.13;45.72;;;;;;;;;;5026245;28;20048;-62
2022/03/22 00:18:33;;;;;;;56.28;47.70;;;;;;;;;;5010506;28;20109;-62
2022/03/22 00:21:00;;;;;;;58.80;48.55;;;;;;;;;;5027724;28;20044;-62
2022/03/22 00:23:26;;;;;;;56.08;47.38;;;;;;;;;;5027813;28;20917;-62
2022/03/22 00:25:52;;;;;;;57.30;45.60;;;;;;;;;;5027163;28;20056;-62
2022/03/22 00:28:19;;;;;;;56.85;45.97;;;;;;;;;;5025648;28;20049;-62
2022/03/22 00:30:45;;;;;;;58.15;47.25;;;;;;;;;;5008437;28;20088;-62
2022/03/22 00:33:11;;;;;;;56.03;47.00;;;;;;;;;;5025564;28;20058;-63
2022/03/22 00:35:39;;;;;;;56.00;44.80;;;;;;;;;;5026460;28;20053;-62
2022/03/22 00:38:11;;;;;;;61.13;47.00;;;;;;;;;;5007284;28;20050;-63
2022/03/22 00:40:37;;;;;;;51.60;43.67;;;;;;;;;;5025420;28;20503;-63
2022/03/22 00:43:03;;;;;;;56.33;44.80;;;;;;;;;;5009510;28;20045;-63
2022/03/22 00:45:33;;;;;;;56.92;46.47;;;;;;;;;;5025579;28;20033;-62
2022/03/22 00:48:01;;;;;;;55.60;45.30;;;;;;;;;;5008525;28;20428;-62
2022/03/22 00:50:33;;;;;;;56.55;47.60;;;;;;;;;;5027416;28;20041;-63
2022/03/22 00:53:00;;;;;;;58.75;47.70;;;;;;;;;;5025806;28;20049;-62
2022/03/22 00:55:27;;;;;;;58.78;47.92;;;;;;;;;;5026699;28;20360;-63
2022/03/22 00:57:53;;;;;;;60.25;46.42;;;;;;;;;;5027124;28;20712;-62
2022/03/22 01:00:20;;;;;;;52.10;46.30;;;;;;;;;;5025050;28;20168;-62
2022/03/22 01:02:50;;;;;;;53.15;41.70;;;;;;;;;;5007902;28;20055;-62
2022/03/22 01:05:19;;;;;;;54.65;43.92;;;;;;;;;;5025419;28;20041;-62
2022/03/22 01:07:46;;;;;;;52.63;45.33;;;;;;;;;;5023621;28;20045;-61
2022/03/22 01:10:13;;;;;;;54.83;44.85;;;;;;;;;;5026396;28;20546;-62
2022/03/22 01:12:40;;;;;;;53.45;46.47;;;;;;;;;;5026645;28;20045;-62
2022/03/22 01:15:12;;;;;;;58.58;47.80;;;;;;;;;;5025385;28;20045;-63
2022/03/22 01:17:39;;;;;;;56.70;47.75;;;;;;;;;;5025655;28;20051;-62
2022/03/22 01:20:06;;;;;;;57.72;50.45;;;;;;;;;;5025707;28;20496;-62
2022/03/22 01:22:33;;;;;;;58.72;50.65;;;;;;;;;;5043667;28;20131;-62
2022/03/22 01:25:00;;;;;;;63.03;53.20;;;;;;;;;;5030772;28;20048;-62
2022/03/22 01:27:26;;;;;;;65.90;51.72;;;;;;;;;;5028419;28;20503;-62
2022/03/22 01:29:52;;;;;;;60.05;50.45;;;;;;;;;;5031410;28;20088;-62
2022/03/22 01:32:19;;;;;;;61.70;50.20;;;;;;;;;;5030523;28;20048;-62
2022/03/22 01:34:46;;;;;;;61.45;50.50;;;;;;;;;;5028934;28;20077;-62
2022/03/22 01:37:12;;;;;;;59.92;50.63;;;;;;;;;;5028814;28;20041;-62
2022/03/22 01:39:38;;;;;;;58.97;49.10;;;;;;;;;;5028254;28;20042;-62
2022/03/22 01:42:05;;;;;;;61.67;48.28;;;;;;;;;;4996538;28;20052;-62
2022/03/22 01:44:32;;;;;;;62.83;50.00;;;;;;;;;;5030529;28;20045;-62
2022/03/22 01:47:00;;;;;;;58.55;48.15;;;;;;;;;;5030091;28;20128;-63
2022/03/22 01:49:26;;;;;;;59.13;47.88;;;;;;;;;;5029326;28;20103;-62
2022/03/22 01:51:52;;;;;;;60.17;49.60;;;;;;;;;;5012796;28;20479;-62
2022/03/22 01:54:19;;;;;;;58.25;48.75;;;;;;;;;;5029488;28;20059;-63
2022/03/22 01:56:45;;;;;;;61.65;49.65;;;;;;;;;;5011649;28;20095;-61
2022/03/22 01:59:11;;;;;;;60.63;47.47;;;;;;;;;;5028585;28;20063;-61
2022/03/22 02:07:07;;;;;;;58.70;47.72;;;;;;;;;;5028675;28;20484;-62
2022/03/22 02:09:34;;;;;;;56.60;44.90;;;;;;;;;;5010530;28;20053;-61
2022/03/22 02:12:00;;;;;;;53.95;45.15;;;;;;;;;;5030411;28;20045;-62
2022/03/22 02:14:26;;;;;;;56.65;46.33;;;;;;;;;;5029391;28;20441;-61
2022/03/22 02:16:52;;;;;;;59.40;46.55;;;;;;;;;;5028371;28;20049;-63
2022/03/22 02:19:18;;;;;;;59.08;46.63;;;;;;;;;;5028426;28;20041;-63
2022/03/22 02:21:45;;;;;;;59.30;46.67;;;;;;;;;;5029843;28;20057;-61
2022/03/22 02:24:12;;;;;;;59.35;49.50;;;;;;;;;;5028391;28;20403;-62
2022/03/22 02:26:38;;;;;;;59.72;48.20;;;;;;;;;;5028108;28;20122;-62
2022/03/22 02:29:05;;;;;;;63.90;50.17;;;;;;;;;;5028036;28;20061;-62
2022/03/22 02:31:32;;;;;;;62.15;49.35;;;;;;;;;;5029588;28;20483;-61
2022/03/22 02:33:59;;;;;;;61.38;50.35;;;;;;;;;;5027433;28;20061;-63
2022/03/22 02:36:25;;;;;;;67.28;51.05;;;;;;;;;;5027872;28;20045;-62
2022/03/22 02:38:52;;;;;;;59.10;49.45;;;;;;;;;;5029994;28;20493;-61
2022/03/22 02:41:23;;;;;;;62.50;50.40;;;;;;;;;;5028573;28;20063;-62
2022/03/22 02:43:50;;;;;;;62.22;49.58;;;;;;;;;;5027729;28;20107;-61
2022/03/22 02:46:17;;;;;;;60.90;49.03;;;;;;;;;;5029408;28;20044;-62
2022/03/22 02:48:43;;;;;;;60.47;47.65;;;;;;;;;;5027819;28;20102;-62
2022/03/22 02:51:10;;;;;;;58.67;49.15;;;;;;;;;;5026502;28;20049;-62
2022/03/22 02:53:36;;;;;;;62.47;50.83;;;;;;;;;;5026546;28;20109;-61
2022/03/22 02:56:02;;;;;;;59.75;50.42;;;;;;;;;;5027105;28;20047;-62
2022/03/22 02:58:28;;;;;;;59.13;48.88;;;;;;;;;;5010890;28;20359;-62
2022/03/22 03:00:54;;;;;;;58.17;46.33;;;;;;;;;;5026546;28;20049;-61
2022/03/22 03:03:22;;;;;;;57.17;47.05;;;;;;;;;;5027095;28;20042;-61
2022/03/22 03:05:52;;;;;;;56.28;45.90;;;;;;;;;;5026599;28;20100;-62
2022/03/22 03:08:19;;;;;;;56.55;45.67;;;;;;;;;;5043167;28;20030;-62
2022/03/22 03:10:45;;;;;;;56.92;45.83;;;;;;;;;;5027867;28;20076;-61
2022/03/22 03:13:12;;;;;;;56.75;45.13;;;;;;;;;;5028240;28;20107;-61
2022/03/22 03:15:39;;;;;;;53.75;41.45;;;;;;;;;;5027531;28;20375;-62
2022/03/22 03:18:05;;;;;;;49.30;40.45;;;;;;;;;;5026385;28;20041;-62
2022/03/22 03:20:31;;;;;;;52.45;40.70;;;;;;;;;;5027454;28;20037;-62
2022/03/22 03:22:57;;;;;;;56.28;45.00;;;;;;;;;;5026714;28;20428;-61
2022/03/22 03:25:23;;;;;;;52.33;43.50;;;;;;;;;;5026502;28;20361;-61
2022/03/22 03:27:49;;;;;;;54.03;44.72;;;;;;;;;;5027055;28;20481;-60
2022/03/22 03:30:16;;;;;;;54.25;44.05;;;;;;;;;;5026766;28;20056;-61
2022/03/22 03:32:43;;;;;;;61.78;48.72;;;;;;;;;;5028609;28;20132;-61
2022/03/22 03:35:09;;;;;;;66.43;49.58;;;;;;;;;;5027039;28;20053;-60
2022/03/22 03:37:36;;;;;;;63.88;50.42;;;;;;;;;;5027344;28;20046;-62
2022/03/22 03:40:06;;;;;;;58.90;46.80;;;;;;;;;;5027642;28;20041;-60
2022/03/22 03:42:32;;;;;;;61.20;48.95;;;;;;;;;;5026965;28;20034;-60
2022/03/22 03:47:43;;;;;;;63.92;48.67;;;;;;;;;;5026911;28;20470;-61
2022/03/22 03:50:11;;;;;;;60.40;46.17;;;;;;;;;;5026398;28;20408;-63
2022/03/22 03:52:38;;;;;;;56.35;43.83;;;;;;;;;;5041818;28;20049;-62
2022/03/22 03:55:07;;;;;;;56.97;44.60;;;;;;;;;;5027192;28;20053;-62
2022/03/22 03:57:35;;;;;;;57.25;46.33;;;;;;;;;;5026819;28;20065;-63
2022/03/22 04:00:01;;;;;;;55.08;44.80;;;;;;;;;;4999017;28;20045;-62
2022/03/22 04:02:27;;;;;;;58.60;44.08;;;;;;;;;;5028265;28;20484;-61
2022/03/22 04:04:55;;;;;;;58.10;46.38;;;;;;;;;;5026903;28;20040;-62
2022/03/22 04:07:22;;;;;;;54.35;43.90;;;;;;;;;;5026230;28;20034;-62
2022/03/22 04:09:48;;;;;;;52.67;43.03;;;;;;;;;;5024391;28;20107;-63
2022/03/22 04:12:15;;;;;;;52.60;41.35;;;;;;;;;;5028313;28;20037;-62
2022/03/22 04:14:41;;;;;;;52.53;41.92;;;;;;;;;;5026220;28;20041;-61
2022/03/22 04:17:08;;;;;;;55.50;43.08;;;;;;;;;;5026934;28;20380;-61
2022/03/22 04:19:35;;;;;;;50.97;39.38;;;;;;;;;;5025702;28;20049;-60
2022/03/22 04:22:02;;;;;;;50.45;40.72;;;;;;;;;;5024991;28;20048;-62
2022/03/22 04:24:29;;;;;;;47.70;38.95;;;;;;;;;;5025130;28;20045;-61
2022/03/22 04:32:41;;;;;;;49.38;39.45;;;;;;;;;;4992633;28;20456;-64
2022/03/22 04:32:47;;;;;;;50.72;40.30;;;;;;;;;;5025628;28;20056;-61
2022/03/22 04:35:14;;;;;;;44.70;38.45;;;;;;;;;;5012994;28;20111;-61
2022/03/22 04:37:41;;;;;;;49.97;39.08;;;;;;;;;;5028011;28;20045;-60
2022/03/22 04:40:07;;;;;;;46.67;39.45;;;;;;;;;;5010819;28;20049;-60
2022/03/22 04:42:34;;;;;;;45.72;38.22;;;;;;;;;;5010031;28;20049;-60
2022/03/22 04:45:01;;;;;;;52.47;40.20;;;;;;;;;;5028016;28;20033;-60
2022/03/22 04:47:27;;;;;;;51.03;38.97;;;;;;;;;;5026000;28;20256;-62
2022/03/22 04:49:53;;;;;;;47.10;37.80;;;;;;;;;;5025659;28;20107;-61
2022/03/22 04:57:49;;;;;;;45.72;37.38;;;;;;;;;;5013503;28;20495;-61
2022/03/22 05:00:15;;;;;;;46.85;37.85;;;;;;;;;;5030030;28;20527;-62
2022/03/22 05:02:41;;;;;;;47.85;39.00;;;;;;;;;;5029106;28;20470;-62
2022/03/22 05:05:07;;;;;;;51.00;40.28;;;;;;;;;;5012029;28;20077;-62
2022/03/22 05:07:33;;;;;;;49.33;38.70;;;;;;;;;;5029337;28;20468;-61
2022/03/22 05:09:59;;;;;;;52.25;39.95;;;;;;;;;;5012482;28;20033;-63
2022/03/22 05:12:26;;;;;;;50.72;41.35;;;;;;;;;;5012645;28;20491;-63
2022/03/22 05:14:52;;;;;;;50.80;40.40;;;;;;;;;;5029348;28;20037;-63
2022/03/22 05:17:23;;;;;;;53.85;42.88;;;;;;;;;;5028622;28;20037;-63
2022/03/22 05:19:50;;;;;;;53.28;40.28;;;;;;;;;;5030050;28;20049;-62
2022/03/22 05:22:16;;;;;;;54.00;42.78;;;;;;;;;;5029655;28;20045;-63
2022/03/22 05:24:42;;;;;;;53.50;41.75;;;;;;;;;;5029292;28;20075;-62
2022/03/22 05:27:09;;;;;;;52.75;41.63;;;;;;;;;;5028505;28;20518;-62
2022/03/22 05:29:38;;;;;;;50.90;40.95;;;;;;;;;;5029748;28;20049;-62
2022/03/22 05:32:04;;;;;;;49.80;40.10;;;;;;;;;;5027963;28;20049;-61
2022/03/22 05:34:30;;;;;;;52.03;40.92;;;;;;;;;;5029245;28;20081;-61
2022/03/22 05:36:57;;;;;;;50.80;40.45;;;;;;;;;;5046480;28;20045;-61
2022/03/22 05:39:23;;;;;;;49.38;40.95;;;;;;;;;;5031116;28;20047;-61
2022/03/22 05:41:49;;;;;;;50.20;40.90;;;;;;;;;;5031128;28;20041;-61
2022/03/22 05:44:16;;;;;;;49.72;39.92;;;;;;;;;;5029800;28;20041;-61
2022/03/22 05:46:43;;;;;;;52.80;41.25;;;;;;;;;;5029313;28;20095;-61
2022/03/22 05:49:09;;;;;;;48.70;39.72;;;;;;;;;;5030800;28;20040;-62
2022/03/22 05:51:36;;;;;;;50.63;40.50;;;;;;;;;;5030405;28;20041;-59
2022/03/22 05:54:03;;;;;;;49.55;40.03;;;;;;;;;;5030094;28;20084;-60
2022/03/22 05:56:29;;;;;;;50.80;40.63;;;;;;;;;;5028977;28;20053;-61
2022/03/22 05:58:58;;;;;;;48.90;39.83;;;;;;;;;;5028619;28;20041;-60
2022/03/22 06:01:25;;;;;;;52.55;41.13;;;;;;;;;;5030220;28;20045;-60
2022/03/22 06:03:51;;;;;;;49.03;39.53;;;;;;;;;;5011646;28;20049;-61
2022/03/22 06:06:17;;;;;;;55.28;42.33;;;;;;;;;;5028053;28;20056;-60
2022/03/22 06:08:45;;;;;;;52.05;41.05;;;;;;;;;;5009900;28;20065;-61
2022/03/22 06:11:11;;;;;;;47.50;39.10;;;;;;;;;;5030134;28;20044;-61
2022/03/22 06:13:38;;;;;;;48.75;39.33;;;;;;;;;;5027908;28;20176;-60
2022/03/22 06:16:05;;;;;;;47.38;38.05;;;;;;;;;;5028779;28;20123;-61
2022/03/22 06:18:31;;;;;;;51.13;40.63;;;;;;;;;;5030430;28;20447;-60
2022/03/22 06:20:58;;;;;;;52.33;38.92;;;;;;;;;;5029689;28;21404;-59
2022/03/22 06:23:24;;;;;;;46.58;37.47;;;;;;;;;;5028416;28;20562;-61
2022/03/22 06:25:51;;;;;;;48.40;38.53;;;;;;;;;;5027070;28;20056;-60
2022/03/22 06:28:18;;;;;;;52.78;39.30;;;;;;;;;;5027884;28;20038;-61
2022/03/22 06:30:44;;;;;;;51.90;39.67;;;;;;;;;;5028049;28;20080;-60
2022/03/22 06:33:12;;;;;;;47.60;37.95;;;;;;;;;;5030670;28;20057;-60
2022/03/22 06:35:39;;;;;;;46.83;38.50;;;;;;;;;;5030156;28;20053;-60
2022/03/22 06:38:05;;;;;;;50.15;38.95;;;;;;;;;;5030100;28;20045;-60
2022/03/22 06:40:34;;;;;;;52.22;39.03;;;;;;;;;;5032777;28;20116;-60
2022/03/22 06:43:01;;;;;;;45.72;37.28;;;;;;;;;;5029869;28;20036;-60
2022/03/22 06:45:27;;;;;;;51.38;39.15;;;;;;;;;;5011788;28;20087;-61
2022/03/22 06:47:54;;;;;;;53.47;37.17;;;;;;;;;;5021297;28;20038;-61
2022/03/22 06:50:21;;;;;;;45.20;36.47;;;;;;;;;;5030104;28;20044;-61
2022/03/22 06:52:48;;;;;;;49.65;37.78;;;;;;;;;;5027950;28;20135;-60
2022/03/22 06:55:18;;;;;;;46.40;36.88;;;;;;;;;;5029214;28;20091;-61
2022/03/22 06:57:44;;;;;;;44.42;37.20;;;;;;;;;;5028536;28;20108;-61
2022/03/22 07:00:11;;;;;;;47.80;35.40;;;;;;;;;;5027561;28;20044;-61
2022/03/22 07:02:41;;;;;;;46.17;37.58;;;;;;;;;;5028502;28;20051;-60
2022/03/22 07:05:08;;;;;;;45.42;35.78;;;;;;;;;;5011337;28;20450;-61
2022/03/22 07:07:34;;;;;;;45.03;35.10;;;;;;;;;;5028184;28;20109;-62
2022/03/22 07:10:00;;;;;;;46.47;36.20;;;;;;;;;;5026977;28;20107;-61
2022/03/22 07:12:27;;;;;;;47.58;37.60;;;;;;;;;;5028309;28;20519;-62
2022/03/22 07:14:54;;;;;;;44.22;35.60;;;;;;;;;;5027241;28;20540;-62
2022/03/22 07:17:20;;;;;;;46.58;35.35;;;;;;;;;;5026989;28;20536;-63
2022/03/22 07:19:47;;;;;;;43.13;35.47;;;;;;;;;;5027033;28;20389;-62
2022/03/22 07:22:13;;;;;;;46.25;36.20;;;;;;;;;;5027475;28;20094;-62
2022/03/22 07:24:40;;;;;;;45.78;35.17;;;;;;;;;;5027214;28;20385;-62
2022/03/22 07:27:06;;;;;;;44.22;35.65;;;;;;;;;;5026344;28;20037;-63
2022/03/22 07:29:32;;;;;;;42.10;35.20;;;;;;;;;;5026537;28;20068;-61
2022/03/22 07:31:59;;;;;;;46.53;35.58;;;;;;;;;;5027252;28;20035;-62
2022/03/22 07:34:26;;;;;;;49.85;36.63;;;;;;;;;;5028327;28;20471;-63
2022/03/22 07:36:52;;;;;;;43.47;35.25;;;;;;;;;;5025517;28;20077;-61
2022/03/22 07:39:19;;;;;;;45.15;34.58;;;;;;;;;;5026705;28;20049;-63
2022/03/22 07:41:46;;;;;;;42.75;34.05;;;;;;;;;;5027852;28;20072;-62
2022/03/22 07:44:12;;;;;;;44.47;32.10;;;;;;;;;;5027712;28;20577;-62
2022/03/22 07:46:39;;;;;;;42.45;32.90;;;;;;;;;;5025318;28;20175;-62
2022/03/22 07:54:36;;;;;;;33.55;29.25;;;;;;;;;;5025705;28;20139;-62
2022/03/22 07:57:02;;;;;;;38.00;30.95;;;;;;;;;;5026058;28;20509;-61
2022/03/22 07:59:28;;;;;;;39.28;32.13;;;;;;;;;;5026466;28;20067;-61
2022/03/22 08:01:55;;;;;;;35.97;31.33;;;;;;;;;;5027421;28;20053;-61
2022/03/22 08:04:21;;;;;;;38.25;33.22;;;;;;;;;;5025011;28;20053;-62
2022/03/22 08:06:47;;;;;;;38.67;32.67;;;;;;;;;;5025465;28;20049;-62
2022/03/22 08:09:13;;;;;;;36.53;31.35;;;;;;;;;;5026403;28;20033;-61
2022/03/22 08:11:39;;;;;;;37.22;33.15;;;;;;;;;;5025166;28;20033;-61
2022/03/22 08:14:06;;;;;;;37.85;30.83;;;;;;;;;;5007806;28;20428;-62
2022/03/22 08:16:32;;;;;;;38.05;31.33;;;;;;;;;;5026173;28;20037;-63
2022/03/22 08:18:58;;;;;;;34.20;28.48;;;;;;;;;;5025182;28;20115;-61
2022/03/22 08:21:25;;;;;;;38.70;30.77;;;;;;;;;;5024594;28;20045;-61
2022/03/22 08:23:51;;;;;;;36.03;30.83;;;;;;;;;;5025247;28;20045;-62
2022/03/22 08:26:17;;;;;;;33.78;30.10;;;;;;;;;;5024926;28;20038;-63
2022/03/22 08:28:43;;;;;;;35.08;30.02;;;;;;;;;;5025307;28;20475;-62
2022/03/22 08:31:12;;;;;;;34.28;30.60;;;;;;;;;;5026499;28;20059;-62
2022/03/22 08:33:38;;;;;;;35.95;29.58;;;;;;;;;;5029702;28;20065;-63
2022/03/22 08:36:05;;;;;;;32.88;29.15;;;;;;;;;;5028674;28;20045;-62
2022/03/22 08:38:31;;;;;;;32.25;28.85;;;;;;;;;;5029150;28;20115;-63
2022/03/22 08:40:57;;;;;;;35.20;30.38;;;;;;;;;;5029469;28;20499;-62
2022/03/22 08:43:27;;;;;;;33.60;28.63;;;;;;;;;;5030333;28;20422;-63
2022/03/22 08:45:54;;;;;;;37.35;28.98;;;;;;;;;;5031219;28;20118;-63
2022/03/22 08:48:20;;;;;;;34.97;30.38;;;;;;;;;;5029385;28;20041;-64
2022/03/22 08:50:48;;;;;;;30.75;27.33;;;;;;;;;;5046849;28;20077;-62
2022/03/22 08:53:16;;;;;;;33.22;28.92;;;;;;;;;;5028344;28;20049;-62
2022/03/22 08:55:42;;;;;;;33.03;29.55;;;;;;;;;;5045421;28;20550;-62
2022/03/22 08:58:08;;;;;;;31.20;27.77;;;;;;;;;;5029457;28;20049;-61
2022/03/22 09:00:35;;;;;;;31.83;28.42;;;;;;;;;;5031895;28;20446;-63
2022/03/22 09:03:02;;;;;;;34.63;29.13;;;;;;;;;;4994063;28;20097;-62
2022/03/22 09:08:14;;;;;;;33.17;28.42;;;;;;;;;;5029286;28;20056;-63
2022/03/22 09:10:41;;;;;;;31.77;28.35;;;;;;;;;;5029522;28;20049;-63
2022/03/22 09:13:08;;;;;;;35.25;30.08;;;;;;;;;;5027022;28;20079;-62
2022/03/22 09:15:36;;;;;;;32.40;29.20;;;;;;;;;;5012851;28;20439;-62
2022/03/22 09:18:02;;;;;;;32.47;29.08;;;;;;;;;;5029438;28;20056;-63
2022/03/22 09:20:33;;;;;;;35.08;30.45;;;;;;;;;;5028673;28;20041;-62
2022/03/22 09:23:00;;;;;;;32.85;29.30;;;;;;;;;;5028939;28;20037;-63
2022/03/22 09:25:27;;;;;;;34.90;29.45;;;;;;;;;;5029313;28;20040;-63
2022/03/22 09:27:54;;;;;;;33.03;29.35;;;;;;;;;;5009638;28;20037;-63
2022/03/22 09:30:20;;;;;;;35.50;30.42;;;;;;;;;;5030436;28;20424;-62
2022/03/22 09:32:47;;;;;;;39.42;31.17;;;;;;;;;;5029145;28;20133;-62
2022/03/22 09:35:16;;;;;;;34.92;31.55;;;;;;;;;;5012163;28;20109;-62
2022/03/22 09:37:44;;;;;;;35.47;30.83;;;;;;;;;;5038190;28;20052;-62
2022/03/22 09:40:11;;;;;;;34.28;30.85;;;;;;;;;;5028553;28;20044;-62
2022/03/22 09:42:45;;;;;;;32.55;29.25;;;;;;;;;;5028179;28;20373;-62
2022/03/22 09:45:14;;;;;;;34.53;31.00;;;;;;;;;;5027060;28;20423;-62
2022/03/22 09:47:42;;;;;;;35.90;32.10;;;;;;;;;;5029874;28;20033;-64
2022/03/22 09:50:09;;;;;;;33.17;28.92;;;;;;;;;;5009816;28;20435;-62
2022/03/22 09:52:38;;;;;;;33.78;29.35;;;;;;;;;;5028784;28;20041;-63
2022/03/22 09:55:06;;;;;;;33.08;29.15;;;;;;;;;;5028164;28;20056;-62
2022/03/22 09:57:32;;;;;;;34.30;30.40;;;;;;;;;;5044329;28;20067;-62
2022/03/22 09:59:58;;;;;;;34.92;31.23;;;;;;;;;;5028008;28;20052;-63
2022/03/22 10:02:29;;;;;;;34.17;30.77;;;;;;;;;;5044858;28;20033;-63
2022/03/22 10:04:55;;;;;;;32.55;29.25;;;;;;;;;;5044899;28;20037;-62
2022/03/22 10:07:23;;;;;;;33.25;29.65;;;;;;;;;;5029987;28;20040;-62
2022/03/22 10:09:55;;;;;;;32.67;29.13;;;;;;;;;;5011401;28;20040;-63
2022/03/22 10:12:37;;;;;;;33.63;30.15;;;;;;;;;;5012367;28;20039;-63
2022/03/22 10:15:08;;;;;;;46.30;31.42;;;;;;;;;;5026047;28;20042;-62
2022/03/22 10:17:34;;;;;;;33.47;30.08;;;;;;;;;;5029726;28;20443;-63
2022/03/22 10:20:01;;;;;;;33.85;30.45;;;;;;;;;;5027872;28;20034;-64
2022/03/22 10:22:27;;;;;;;35.45;31.70;;;;;;;;;;5029774;28;20042;-63
2022/03/22 10:24:57;;;;;;;34.15;30.65;;;;;;;;;;5029645;28;20044;-63
2022/03/22 10:27:31;;;;;;;35.10;31.15;;;;;;;;;;5028960;28;20037;-62
2022/03/22 10:29:58;;;;;;;51.03;32.30;;;;;;;;;;5029248;28;20045;-62
2022/03/22 10:32:32;;;;;;;35.47;31.55;;;;;;;;;;5028387;28;20519;-62
2022/03/22 10:34:58;;;;;;;35.53;31.73;;;;;;;;;;5027261;28;20061;-62
2022/03/22 10:37:25;;;;;;;33.40;30.10;;;;;;;;;;5029161;28;20040;-62
2022/03/22 10:39:52;;;;;;;36.17;29.90;;;;;;;;;;5027473;28;20126;-63
2022/03/22 10:42:23;;;;;;;33.88;30.33;;;;;;;;;;5027646;28;20123;-61
2022/03/22 10:44:50;;;;;;;34.75;31.27;;;;;;;;;;5027245;28;20042;-63
2022/03/22 10:47:25;;;;;;;35.90;32.30;;;;;;;;;;5028694;28;20038;-62
2022/03/22 10:50:01;;;;;;;35.03;31.38;;;;;;;;;;5027104;28;20038;-63
2022/03/22 10:52:29;;;;;;;34.65;31.17;;;;;;;;;;5027224;28;20053;-63
2022/03/22 10:54:55;;;;;;;34.42;30.83;;;;;;;;;;5026425;28;20045;-63
2022/03/22 10:57:29;;;;;;;34.65;31.05;;;;;;;;;;5032576;28;20091;-63
2022/03/22 10:59:55;;;;;;;34.45;30.98;;;;;;;;;;5027192;28;20381;-63
2022/03/22 11:02:23;;;;;;;32.35;29.02;;;;;;;;;;5028756;28;20133;-62
2022/03/22 11:04:50;;;;;;;34.20;30.70;;;;;;;;;;5028773;28;20091;-62
2022/03/22 11:07:17;;;;;;;35.03;31.55;;;;;;;;;;5027252;28;20041;-62
2022/03/22 11:09:43;;;;;;;33.60;30.20;;;;;;;;;;5028818;28;20487;-64
2022/03/22 11:12:10;;;;;;;32.20;28.92;;;;;;;;;;5026016;28;20040;-61
2022/03/22 11:14:36;;;;;;;33.20;29.83;;;;;;;;;;5028430;28;20030;-62
2022/03/22 11:17:03;;;;;;;33.25;29.83;;;;;;;;;;5027345;28;20037;-63
2022/03/22 11:19:29;;;;;;;33.58;30.17;;;;;;;;;;5028299;28;20396;-64
2022/03/22 11:22:03;;;;;;;34.67;31.17;;;;;;;;;;5028273;28;20064;-62
2022/03/22 11:24:29;;;;;;;34.20;30.65;;;;;;;;;;5026908;28;20049;-62
2022/03/22 11:26:56;;;;;;;34.75;31.15;;;;;;;;;;5026912;28;20080;-63
2022/03/22 11:29:24;;;;;;;33.65;30.20;;;;;;;;;;5010337;28;20041;-63
2022/03/22 11:34:36;;;;;;;34.83;31.15;;;;;;;;;;5027781;28;20148;-65
2022/03/22 11:37:02;;;;;;;34.67;31.17;;;;;;;;;;5023454;28;20499;-63
2022/03/22 11:42:18;;;;;;;33.13;29.65;;;;;;;;;;5027927;28;20064;-63
2022/03/22 11:44:54;;;;;;;34.10;30.70;;;;;;;;;;5027894;28;20273;-63
2022/03/22 11:47:20;;;;;;;33.58;29.92;;;;;;;;;;5028102;28;20083;-61
2022/03/22 11:49:53;;;;;;;33.17;29.92;;;;;;;;;;5026324;28;20132;-63
2022/03/22 11:52:21;;;;;;;34.30;29.90;;;;;;;;;;5027877;28;20270;-64
2022/03/22 11:54:54;;;;;;;34.33;30.95;;;;;;;;;;5027633;28;20377;-64
2022/03/22 11:57:21;;;;;;;33.53;30.20;;;;;;;;;;5025869;28;20044;-64
2022/03/22 11:59:52;;;;;;;34.55;31.05;;;;;;;;;;5026490;28;20045;-64
2022/03/22 12:02:19;;;;;;;33.25;29.90;;;;;;;;;;5010250;28;20051;-64
2022/03/22 12:04:57;;;;;;;34.30;30.80;;;;;;;;;;5028244;28;20037;-63
2022/03/22 12:07:28;;;;;;;32.53;29.08;;;;;;;;;;5025803;28;20029;-62
2022/03/22 12:09:54;;;;;;;36.47;30.13;;;;;;;;;;5028279;28;20048;-62
2022/03/22 12:12:20;;;;;;;34.10;30.05;;;;;;;;;;5027780;28;20104;-63
2022/03/22 12:14:48;;;;;;;32.28;28.88;;;;;;;;;;5010046;28;20045;-62
2022/03/22 12:17:14;;;;;;;32.15;28.75;;;;;;;;;;5026276;28;20352;-65
2022/03/22 12:19:40;;;;;;;33.42;28.95;;;;;;;;;;5027616;28;20033;-64
2022/03/22 12:22:07;;;;;;;34.65;30.88;;;;;;;;;;5027623;28;20029;-62
2022/03/22 12:24:34;;;;;;;33.63;29.20;;;;;;;;;;5026741;28;20064;-61
2022/03/22 12:27:05;;;;;;;33.47;30.02;;;;;;;;;;5010364;28;20116;-63
2022/03/22 12:29:31;;;;;;;32.85;29.45;;;;;;;;;;5026543;28;20033;-62
2022/03/22 12:32:06;;;;;;;33.03;29.23;;;;;;;;;;5027659;28;20046;-62
2022/03/22 12:34:34;;;;;;;40.65;30.02;;;;;;;;;;5026473;28;20054;-63
2022/03/22 12:37:01;;;;;;;32.92;29.42;;;;;;;;;;5027481;28;20116;-62
2022/03/22 12:39:27;;;;;;;33.28;29.98;;;;;;;;;;5027835;28;20045;-62
2022/03/22 12:41:55;;;;;;;32.17;28.92;;;;;;;;;;5025263;28;20052;-62
2022/03/22 12:44:23;;;;;;;32.10;28.75;;;;;;;;;;5027261;28;20460;-63
2022/03/22 12:46:49;;;;;;;34.20;30.50;;;;;;;;;;5026313;28;20045;-62
2022/03/22 12:49:17;;;;;;;87.88;33.95;;;;;;;;;;5026612;28;20546;-63
2022/03/22 12:51:43;;;;;;;54.42;30.40;;;;;;;;;;5026175;28;20037;-63
2022/03/22 12:54:09;;;;;;;33.22;29.58;;;;;;;;;;5025319;28;20064;-61
2022/03/22 12:56:35;;;;;;;36.63;29.55;;;;;;;;;;5025829;28;20541;-63
2022/03/22 12:59:02;;;;;;;33.45;29.73;;;;;;;;;;5025561;28;20045;-61
2022/03/22 13:01:38;;;;;;;33.55;30.10;;;;;;;;;;5023933;28;20684;-62
2022/03/22 13:04:04;;;;;;;33.85;30.35;;;;;;;;;;5023853;28;20047;-62
2022/03/22 13:06:30;;;;;;;33.83;30.52;;;;;;;;;;5023896;28;20037;-63
2022/03/22 13:11:41;;;;;;;33.83;30.50;;;;;;;;;;5025093;28;20042;-64
2022/03/22 13:16:56;;;;;;;33.65;30.17;;;;;;;;;;5025306;28;20513;-60
2022/03/22 13:19:22;;;;;;;35.80;32.28;;;;;;;;;;5027297;28;20056;-61
2022/03/22 13:21:48;;;;;;;35.22;31.30;;;;;;;;;;5030999;28;20048;-61
2022/03/22 13:24:24;;;;;;;33.72;30.35;;;;;;;;;;5029950;28;20377;-61
2022/03/22 13:26:51;;;;;;;35.13;31.73;;;;;;;;;;5028935;28;20111;-62
2022/03/22 13:29:21;;;;;;;33.67;30.52;;;;;;;;;;5028270;28;20029;-61
2022/03/22 13:31:57;;;;;;;34.70;31.13;;;;;;;;;;5042740;28;20496;-61
2022/03/22 13:34:24;;;;;;;36.25;32.65;;;;;;;;;;5028113;28;20530;-62
2022/03/22 13:36:51;;;;;;;35.40;31.67;;;;;;;;;;5028573;28;20049;-62
2022/03/22 13:39:23;;;;;;;36.10;32.50;;;;;;;;;;5029907;28;20033;-60
2022/03/22 13:41:49;;;;;;;;;;;;;;;;;;5029425;28;20045;-62
2022/03/22 13:44:26;;;;;;;36.13;32.13;;;;;;;;;;5029208;28;19927;-61
2022/03/22 13:46:52;;;;;;;35.92;32.10;;;;;;;;;;5029459;28;20045;-61
2022/03/22 13:49:18;;;;;;;34.55;30.95;;;;;;;;;;5027792;28;20112;-62
2022/03/22 13:51:45;;;;;;;35.55;31.88;;;;;;;;;;5029234;28;20033;-62
2022/03/22 13:54:14;;;;;;;34.42;30.92;;;;;;;;;;5027943;28;20053;-61
2022/03/22 13:56:40;;;;;;;33.78;30.25;;;;;;;;;;5012134;28;20041;-61
2022/03/22 13:59:11;;;;;;;35.45;31.92;;;;;;;;;;5029207;28;20080;-61
2022/03/22 14:01:39;;;;;;;36.88;33.03;;;;;;;;;;5026563;28;20045;-61
2022/03/22 14:04:05;;;;;;;36.83;33.13;;;;;;;;;;5011188;28;20043;-62
2022/03/22 14:06:31;;;;;;;37.50;33.80;;;;;;;;;;5010897;28;20400;-61
2022/03/22 14:08:58;;;;;;;36.88;33.17;;;;;;;;;;5027657;28;20029;-61
2022/03/22 14:11:25;;;;;;;37.03;33.22;;;;;;;;;;5028830;28;20450;-62
2022/03/22 14:13:51;;;;;;;37.00;33.35;;;;;;;;;;5027944;28;20143;-62
2022/03/22 14:16:17;;;;;;;36.78;33.33;;;;;;;;;;5027690;28;20469;-61
2022/03/22 14:18:44;;;;;;;37.90;34.30;;;;;;;;;;5027383;28;20041;-62
2022/03/22 14:21:10;;;;;;;38.08;34.42;;;;;;;;;;5030614;28;20440;-61
2022/03/22 14:23:36;;;;;;;39.25;35.42;;;;;;;;;;5030163;28;20052;-61
2022/03/22 14:26:03;;;;;;;39.85;35.95;;;;;;;;;;5028647;28;20088;-62
2022/03/22 14:28:29;;;;;;;40.67;36.33;;;;;;;;;;5029616;28;20563;-62
2022/03/22 14:30:55;;;;;;;40.55;36.55;;;;;;;;;;5030399;28;20042;-61
2022/03/22 14:33:22;;;;;;;40.47;36.17;;;;;;;;;;5029093;28;20484;-62
2022/03/22 14:35:53;;;;;;;40.42;36.42;;;;;;;;;;5029635;28;20127;-61
2022/03/22 14:38:19;;;;;;;41.83;37.15;;;;;;;;;;5027834;28;20077;-61
2022/03/22 14:40:46;;;;;;;43.30;38.72;;;;;;;;;;5030150;28;20045;-61
2022/03/22 14:43:12;;;;;;;42.88;38.38;;;;;;;;;;5011113;28;20126;-62
2022/03/22 14:45:39;;;;;;;42.00;37.65;;;;;;;;;;5027777;28;20045;-61
2022/03/22 14:48:05;;;;;;;42.92;38.20;;;;;;;;;;5029737;28;20462;-61
2022/03/22 14:50:34;;;;;;;45.00;40.15;;;;;;;;;;5028523;28;20041;-61
2022/03/22 14:55:45;;;;;;;46.97;39.78;;;;;;;;;;5026789;28;20041;-61
2022/03/22 15:00:56;;;;;;;44.65;38.72;;;;;;;;;;5029575;28;20041;-62